Time;durP1;ratioP1;P1;durP2;ratioP2;P2;SDS_P1;SDS_P2;PMS_P1;PMS_P2;Temp;Humidity;BMP_temperature;BMP_pressure;BME280_temperature;BME280_humidity;BME280_pressure;Samples;Min_cycle;Max_cycle;Signal;HPM_P1;HPM_P2
2022/12/18 00:01:20;;;;;;;93.38;28.67;;;-10.30;99.90;;;;;;5006443;28;20030;-67
2022/12/18 00:03:46;;;;;;;103.93;29.63;;;-10.20;99.90;;;;;;5000598;28;20105;-67
2022/12/18 00:06:13;;;;;;;108.35;30.50;;;-10.10;99.90;;;;;;5021611;28;20089;-67
2022/12/18 00:08:39;;;;;;;110.32;28.60;;;-10.10;99.90;;;;;;5002594;28;20034;-66
2022/12/18 00:11:12;;;;;;;82.63;25.67;;;-10.30;99.90;;;;;;4996284;28;20106;-68
2022/12/18 00:13:38;;;;;;;96.15;27.83;;;-10.30;99.90;;;;;;4994561;28;20048;-67
2022/12/18 00:16:06;;;;;;;97.53;26.58;;;-10.20;99.90;;;;;;5006966;28;20487;-67
2022/12/18 00:18:32;;;;;;;142.30;33.42;;;-10.20;99.90;;;;;;4993647;28;20026;-67
2022/12/18 00:21:06;;;;;;;202.05;47.00;;;-10.10;99.90;;;;;;5002361;28;20113;-67
2022/12/18 00:23:34;;;;;;;135.68;35.05;;;-9.90;99.90;;;;;;5006809;28;20502;-68
2022/12/18 00:26:05;;;;;;;133.85;34.58;;;-9.80;99.90;;;;;;5004312;28;20049;-68
2022/12/18 00:28:31;;;;;;;128.23;32.42;;;-9.80;99.90;;;;;;5000757;28;20215;-67
2022/12/18 00:31:05;;;;;;;129.25;34.63;;;-9.50;99.90;;;;;;4993500;28;20030;-67
2022/12/18 00:33:31;;;;;;;116.65;33.00;;;-9.20;99.90;;;;;;5002217;28;20032;-67
2022/12/18 00:36:11;;;;;;;105.63;30.40;;;-9.50;99.90;;;;;;5007273;28;20418;-67
2022/12/18 00:38:38;;;;;;;116.65;30.98;;;-9.80;99.90;;;;;;5003280;28;20060;-67
2022/12/18 00:41:04;;;;;;;112.30;32.85;;;-9.60;99.90;;;;;;5011142;28;20042;-68
2022/12/18 00:43:30;;;;;;;115.18;30.88;;;-9.60;99.90;;;;;;5003455;28;20487;-67
2022/12/18 00:45:55;;;;;;;103.65;27.10;;;-10.10;99.90;;;;;;5006659;28;20048;-68
2022/12/18 00:48:22;;;;;;;104.10;28.80;;;-10.20;99.90;;;;;;5005958;28;20036;-67
2022/12/18 00:50:49;;;;;;;96.38;26.95;;;-9.90;99.90;;;;;;5010107;28;20080;-68
2022/12/18 00:53:15;;;;;;;96.68;27.60;;;-9.70;99.90;;;;;;5009657;28;20548;-67
2022/12/18 00:55:41;;;;;;;89.90;24.90;;;-9.50;99.90;;;;;;5005875;28;20127;-67
2022/12/18 00:58:08;;;;;;;87.97;24.30;;;-9.20;99.90;;;;;;5004751;28;20055;-68
2022/12/18 01:00:34;;;;;;;99.30;25.75;;;-9.10;99.90;;;;;;4998273;28;20025;-66
2022/12/18 01:03:00;;;;;;;87.28;26.02;;;-8.90;99.90;;;;;;5007707;28;20044;-68
2022/12/18 01:05:26;;;;;;;93.03;25.23;;;-8.70;99.90;;;;;;4998563;28;20483;-68
2022/12/18 01:07:51;;;;;;;88.75;25.23;;;-8.50;99.90;;;;;;5006206;28;20019;-66
2022/12/18 01:10:17;;;;;;;92.80;24.25;;;-8.40;99.90;;;;;;5001627;28;20100;-67
2022/12/18 01:12:43;;;;;;;94.13;24.75;;;-8.30;99.90;;;;;;5000700;28;20041;-68
2022/12/18 01:15:10;;;;;;;94.47;25.30;;;-8.20;99.90;;;;;;5001463;28;20041;-68
2022/12/18 01:17:36;;;;;;;87.60;24.70;;;-8.10;99.90;;;;;;5001338;28;20112;-66
2022/12/18 01:20:02;;;;;;;86.40;23.30;;;-8.10;99.90;;;;;;4996373;28;20551;-66
2022/12/18 01:22:28;;;;;;;76.18;22.58;;;-8.00;99.90;;;;;;4990851;28;20054;-68
2022/12/18 01:24:53;;;;;;;78.22;24.27;;;-8.00;99.90;;;;;;5009399;28;20390;-67
2022/12/18 01:27:19;;;;;;;83.38;23.67;;;-8.00;99.90;;;;;;5021394;28;20538;-68
2022/12/18 01:29:45;;;;;;;86.82;23.67;;;-8.00;99.90;;;;;;5004338;28;20025;-67
2022/12/18 01:32:10;;;;;;;89.43;23.20;;;-7.90;99.90;;;;;;5009317;28;20030;-67
2022/12/18 01:34:37;;;;;;;85.97;23.80;;;-7.90;99.90;;;;;;5004578;28;20030;-66
2022/12/18 01:37:06;;;;;;;79.90;23.17;;;-7.80;99.90;;;;;;4991847;28;20589;-68
2022/12/18 01:39:32;;;;;;;74.78;21.90;;;-7.80;99.90;;;;;;5005124;28;20053;-67
2022/12/18 01:42:05;;;;;;;71.95;20.45;;;-7.70;99.90;;;;;;5013551;28;20482;-68
2022/12/18 01:44:49;;;;;;;75.82;21.77;;;-7.70;99.90;;;;;;5007624;28;20104;-67
2022/12/18 01:47:20;;;;;;;76.43;20.42;;;-7.70;99.90;;;;;;5006941;28;20095;-68
2022/12/18 01:49:45;;;;;;;77.72;22.67;;;-7.70;99.90;;;;;;5005593;28;20483;-67
2022/12/18 01:52:11;;;;;;;74.13;21.02;;;-7.70;99.90;;;;;;5009193;28;20088;-66
2022/12/18 01:54:37;;;;;;;86.35;24.55;;;-7.80;99.90;;;;;;4998508;28;20204;-69
2022/12/18 01:57:03;;;;;;;81.28;22.38;;;-7.90;99.90;;;;;;5001263;28;20050;-67
2022/12/18 01:59:32;;;;;;;74.30;21.67;;;-8.00;99.90;;;;;;4997800;28;20027;-68
2022/12/18 02:01:59;;;;;;;89.97;22.90;;;-8.10;99.90;;;;;;5004668;28;20052;-66
2022/12/18 02:04:26;;;;;;;78.95;22.95;;;-8.10;99.90;;;;;;5002103;28;20093;-67
2022/12/18 02:07:08;;;;;;;84.82;24.67;;;-8.10;99.90;;;;;;4990845;28;20080;-67
2022/12/18 02:09:47;;;;;;;97.22;25.15;;;-8.20;99.90;;;;;;5007324;28;20489;-67
2022/12/18 02:12:30;;;;;;;79.15;23.63;;;-8.20;99.90;;;;;;5007138;28;20091;-68
2022/12/18 02:15:05;;;;;;;87.72;23.73;;;-8.20;99.90;;;;;;4995420;28;20034;-67
2022/12/18 02:17:42;;;;;;;82.50;23.05;;;-8.10;99.90;;;;;;4999357;28;20072;-67
2022/12/18 02:20:19;;;;;;;85.60;24.15;;;-8.00;99.90;;;;;;5002829;28;20163;-67
2022/12/18 02:23:12;;;;;;;78.72;21.50;;;-8.00;99.90;;;;;;5002543;28;20073;-67
2022/12/18 02:25:52;;;;;;;79.45;21.45;;;-7.90;99.90;;;;;;4999945;28;20044;-65
2022/12/18 02:28:23;;;;;;;86.18;22.27;;;-8.00;99.90;;;;;;4990128;28;20057;-69
2022/12/18 02:30:51;;;;;;;76.20;21.75;;;-8.00;99.90;;;;;;5007725;28;20041;-68
2022/12/18 02:33:18;;;;;;;82.05;23.17;;;-8.00;99.90;;;;;;5002570;28;20114;-67
2022/12/18 02:35:45;;;;;;;76.28;22.20;;;-8.00;99.90;;;;;;5000427;28;20583;-67
2022/12/18 02:38:13;;;;;;;82.68;21.80;;;-8.10;99.90;;;;;;4996792;28;20040;-67
2022/12/18 02:40:40;;;;;;;78.00;21.60;;;-8.00;99.90;;;;;;5003629;28;20038;-68
2022/12/18 02:43:14;;;;;;;81.80;21.42;;;-8.00;99.90;;;;;;5007129;28;20050;-65
2022/12/18 02:45:58;;;;;;;80.10;23.23;;;-8.00;99.90;;;;;;4997452;28;20228;-68
2022/12/18 02:48:32;;;;;;;80.68;22.33;;;-8.00;99.90;;;;;;4989495;28;20034;-69
2022/12/18 02:51:06;;;;;;;81.13;21.88;;;-7.90;99.90;;;;;;4989846;28;20489;-67
2022/12/18 02:53:56;;;;;;;85.47;23.33;;;-7.90;99.90;;;;;;5004575;28;20036;-67
2022/12/18 02:56:42;;;;;;;84.68;21.70;;;-7.90;99.90;;;;;;5004844;28;20053;-69
2022/12/18 02:59:19;;;;;;;79.75;20.70;;;-7.90;99.90;;;;;;4999583;28;20046;-68
2022/12/18 03:01:56;;;;;;;71.30;20.38;;;-8.00;99.90;;;;;;5001173;28;20030;-66
2022/12/18 03:04:31;;;;;;;80.10;21.38;;;-7.90;99.90;;;;;;5005288;28;20034;-69
2022/12/18 03:07:09;;;;;;;80.03;21.60;;;-7.90;99.90;;;;;;4989771;28;20762;-67
2022/12/18 03:09:39;;;;;;;78.05;21.45;;;-7.90;99.90;;;;;;5003166;28;20030;-66
2022/12/18 03:12:24;;;;;;;83.65;22.27;;;-7.90;99.90;;;;;;4997427;28;20022;-69
2022/12/18 03:15:08;;;;;;;71.32;20.30;;;-8.00;99.90;;;;;;5003392;28;20041;-66
2022/12/18 03:17:34;;;;;;;81.07;21.13;;;-8.00;99.90;;;;;;4999098;28;20076;-67
2022/12/18 03:20:09;;;;;;;69.45;20.65;;;-8.00;99.90;;;;;;5005858;28;20026;-66
2022/12/18 03:22:38;;;;;;;72.70;21.45;;;-8.00;99.90;;;;;;4993397;28;20038;-66
2022/12/18 03:25:08;;;;;;;70.25;19.25;;;-8.10;99.90;;;;;;5005951;28;20502;-68
2022/12/18 03:27:38;;;;;;;53.42;15.05;;;-8.00;99.90;;;;;;5006314;28;20034;-67
2022/12/18 03:30:08;;;;;;;;;;;-8.00;99.90;;;;;;5007415;28;20113;-67
2022/12/18 03:32:42;;;;;;;;;;;-8.00;99.90;;;;;;5008891;28;19967;-68
2022/12/18 03:35:11;;;;;;;66.88;18.10;;;-8.00;99.90;;;;;;5003594;28;19999;-67
2022/12/18 03:37:37;;;;;;;77.10;18.95;;;-8.00;99.90;;;;;;4994255;28;20022;-67
2022/12/18 03:40:04;;;;;;;71.85;20.00;;;-8.00;99.90;;;;;;5005467;28;20389;-67
2022/12/18 03:42:46;;;;;;;64.05;17.02;;;-8.10;99.90;;;;;;4999472;28;20033;-68
2022/12/18 03:45:34;;;;;;;61.28;16.88;;;-8.10;99.90;;;;;;5005296;28;20053;-67
2022/12/18 03:48:15;;;;;;;64.03;18.10;;;-8.00;99.90;;;;;;5020438;28;20026;-67
2022/12/18 03:50:57;;;;;;;56.90;16.60;;;-8.00;99.90;;;;;;4998011;28;20037;-67
2022/12/18 03:53:50;;;;;;;59.08;16.83;;;-8.00;99.90;;;;;;4992794;28;20076;-68
2022/12/18 03:56:17;;;;;;;58.92;17.00;;;-7.90;99.90;;;;;;4999475;28;20471;-68
2022/12/18 03:58:44;;;;;;;59.70;16.00;;;-7.90;99.90;;;;;;5002181;28;20447;-68
2022/12/18 04:01:13;;;;;;;60.90;16.33;;;-7.90;99.90;;;;;;4993336;28;20110;-66
2022/12/18 04:03:40;;;;;;;60.38;16.05;;;-7.90;99.90;;;;;;4988231;28;20045;-67
2022/12/18 04:06:07;;;;;;;65.07;16.77;;;-7.90;99.90;;;;;;5000370;28;20491;-66
2022/12/18 04:08:34;;;;;;;61.70;16.70;;;-7.90;99.90;;;;;;4998997;28;20072;-68
2022/12/18 04:11:01;;;;;;;57.15;14.95;;;-7.90;99.90;;;;;;5005562;28;20541;-66
2022/12/18 04:13:35;;;;;;;53.92;15.15;;;-7.80;99.90;;;;;;5002464;28;20547;-68
2022/12/18 04:16:01;;;;;;;59.38;16.48;;;-7.80;99.90;;;;;;4999964;28;20044;-66
2022/12/18 04:18:27;;;;;;;55.88;15.07;;;-7.70;99.90;;;;;;5005226;28;20072;-69
2022/12/18 04:20:52;;;;;;;62.58;16.35;;;-7.60;99.90;;;;;;4992539;28;20105;-67
2022/12/18 04:23:18;;;;;;;51.15;15.40;;;-7.50;99.90;;;;;;5004014;28;20574;-68
2022/12/18 04:25:43;;;;;;;61.13;15.13;;;-7.50;99.90;;;;;;5009878;28;20037;-68
2022/12/18 04:28:09;;;;;;;68.90;16.77;;;-7.50;99.90;;;;;;4997707;28;20042;-67
2022/12/18 04:30:35;;;;;;;56.72;15.00;;;-7.50;99.90;;;;;;5000147;28;20058;-68
2022/12/18 04:33:00;;;;;;;59.17;15.82;;;-7.60;99.90;;;;;;5008661;28;20382;-67
2022/12/18 04:35:26;;;;;;;56.85;16.20;;;-7.60;99.90;;;;;;5005935;28;20037;-69
2022/12/18 04:37:52;;;;;;;56.00;15.80;;;-7.50;99.90;;;;;;4994121;28;20778;-67
2022/12/18 04:40:17;;;;;;;55.47;14.95;;;-7.50;99.90;;;;;;5001419;28;20103;-68
2022/12/18 04:42:43;;;;;;;57.80;16.15;;;-7.60;99.90;;;;;;5001389;28;20030;-67
2022/12/18 04:45:09;;;;;;;67.28;16.27;;;-7.60;99.90;;;;;;5009095;28;20038;-69
2022/12/18 04:47:34;;;;;;;70.20;16.75;;;-7.60;99.90;;;;;;5004777;28;20034;-68
2022/12/18 04:50:00;;;;;;;59.83;15.80;;;-7.50;99.90;;;;;;5010191;28;20423;-68
2022/12/18 04:52:25;;;;;;;64.80;15.43;;;-7.50;99.90;;;;;;5010852;28;20088;-67
2022/12/18 04:54:51;;;;;;;58.25;15.63;;;-7.40;99.90;;;;;;5004145;28;20049;-67
2022/12/18 04:57:20;;;;;;;59.45;14.95;;;-7.40;99.90;;;;;;5007044;28;20036;-67
2022/12/18 04:59:45;;;;;;;54.00;15.23;;;-7.40;99.90;;;;;;5004698;28;20029;-67
2022/12/18 05:02:11;;;;;;;61.85;15.43;;;-7.30;99.90;;;;;;5007536;28;20145;-67
2022/12/18 05:04:37;;;;;;;57.53;15.55;;;-7.30;99.90;;;;;;4994813;28;20031;-67
2022/12/18 05:07:02;;;;;;;67.55;15.73;;;-7.20;99.90;;;;;;5000248;28;20091;-67
2022/12/18 05:09:28;;;;;;;53.63;14.20;;;-7.30;99.90;;;;;;5004024;28;20080;-68
2022/12/18 05:11:53;;;;;;;58.55;15.30;;;-7.30;99.90;;;;;;4991730;28;20030;-68
2022/12/18 05:14:19;;;;;;;56.25;15.35;;;-7.40;99.90;;;;;;5005986;28;20062;-66
2022/12/18 05:16:45;;;;;;;64.72;16.05;;;-7.50;99.90;;;;;;4998083;28;20455;-66
2022/12/18 05:19:10;;;;;;;66.40;16.10;;;-7.50;99.90;;;;;;5010615;28;20060;-67
2022/12/18 05:21:36;;;;;;;68.80;16.52;;;-7.50;99.90;;;;;;4996222;28;20156;-67
2022/12/18 05:24:02;;;;;;;66.13;16.10;;;-7.60;99.90;;;;;;5001415;28;20057;-65
2022/12/18 05:26:28;;;;;;;61.85;16.63;;;-7.60;99.90;;;;;;5005674;28;20052;-67
2022/12/18 05:28:56;;;;;;;59.65;16.70;;;-7.70;99.90;;;;;;5011662;28;20045;-68
2022/12/18 05:31:22;;;;;;;65.40;16.63;;;-7.80;99.90;;;;;;5004553;28;20030;-66
2022/12/18 05:33:51;;;;;;;64.75;16.35;;;-7.90;99.90;;;;;;5007324;28;20048;-66
2022/12/18 05:36:16;;;;;;;58.08;15.63;;;-7.90;99.90;;;;;;5008148;28;20505;-67
2022/12/18 05:38:42;;;;;;;66.35;15.77;;;-7.90;99.90;;;;;;5007961;28;20038;-69
2022/12/18 05:41:08;;;;;;;72.35;16.30;;;-7.80;99.90;;;;;;5007199;28;20029;-67
2022/12/18 05:43:36;;;;;;;63.35;16.45;;;-7.80;99.90;;;;;;5008315;28;20036;-67
2022/12/18 05:46:11;;;;;;;70.30;16.38;;;-7.70;99.90;;;;;;5009703;28;20041;-68
2022/12/18 05:48:37;;;;;;;70.50;16.83;;;-7.70;99.90;;;;;;5008483;28;20573;-67
2022/12/18 05:51:08;;;;;;;62.50;16.17;;;-7.70;99.90;;;;;;5009877;28;20042;-68
2022/12/18 05:53:34;;;;;;;66.07;16.50;;;-7.80;99.90;;;;;;5003832;28;20077;-69
2022/12/18 05:56:05;;;;;;;63.30;16.35;;;-7.70;99.90;;;;;;5006806;28;20041;-67
2022/12/18 05:58:31;;;;;;;59.63;16.17;;;-7.60;99.90;;;;;;5002237;28;20038;-69
2022/12/18 06:00:58;;;;;;;63.20;16.08;;;-7.60;99.90;;;;;;5002968;28;20794;-66
2022/12/18 06:03:24;;;;;;;56.15;14.80;;;-7.60;99.90;;;;;;5005190;28;20946;-67
2022/12/18 06:05:49;;;;;;;61.63;15.32;;;-7.60;99.90;;;;;;5009271;28;20569;-67
2022/12/18 06:08:15;;;;;;;64.28;16.38;;;-7.60;99.90;;;;;;5008726;28;20064;-67
2022/12/18 06:10:41;;;;;;;62.22;16.50;;;-7.60;99.90;;;;;;5004858;28;20391;-67
2022/12/18 06:13:07;;;;;;;67.45;16.42;;;-7.80;99.90;;;;;;5000559;28;20106;-68
2022/12/18 06:15:37;;;;;;;64.00;16.17;;;-8.00;99.90;;;;;;5014903;28;20049;-68
2022/12/18 06:18:03;;;;;;;73.25;17.70;;;-8.20;99.90;;;;;;5004988;28;20041;-68
2022/12/18 06:20:31;;;;;;;64.07;17.00;;;-8.10;99.90;;;;;;5008577;28;20034;-67
2022/12/18 06:22:57;;;;;;;69.38;17.58;;;-8.10;99.90;;;;;;5000812;28;20053;-67
2022/12/18 06:25:22;;;;;;;77.80;17.65;;;-8.20;99.90;;;;;;4999768;28;20391;-66
2022/12/18 06:27:48;;;;;;;63.05;16.98;;;-8.30;99.90;;;;;;4991329;28;20408;-67
2022/12/18 06:30:14;;;;;;;72.22;16.75;;;-8.30;99.90;;;;;;5007238;28;20054;-68
2022/12/18 06:32:40;;;;;;;76.60;17.30;;;-8.30;99.90;;;;;;5004179;28;20038;-68
2022/12/18 06:35:06;;;;;;;66.03;16.95;;;-8.30;99.90;;;;;;4998467;28;20058;-70
2022/12/18 06:37:34;;;;;;;73.57;17.65;;;-8.40;99.90;;;;;;4995352;28;20514;-68
2022/12/18 06:40:00;;;;;;;63.28;17.38;;;-8.40;99.90;;;;;;5008325;28;20041;-68
2022/12/18 06:42:26;;;;;;;70.25;16.13;;;-8.40;99.90;;;;;;5017763;28;20027;-69
2022/12/18 06:44:52;;;;;;;77.03;15.90;;;-8.20;99.90;;;;;;5016934;28;20069;-68
2022/12/18 06:47:18;;;;;;;68.43;16.23;;;-8.10;99.90;;;;;;5008157;28;20395;-68
2022/12/18 06:49:44;;;;;;;68.18;16.88;;;-7.90;99.90;;;;;;5010509;28;20073;-69
2022/12/18 06:52:09;;;;;;;71.20;17.10;;;-7.90;99.90;;;;;;4994030;28;20436;-68
2022/12/18 06:54:35;;;;;;;68.18;16.27;;;-7.70;99.90;;;;;;4990599;28;20503;-69
2022/12/18 06:57:00;;;;;;;68.25;15.85;;;-7.60;99.90;;;;;;5001988;28;21826;-68
2022/12/18 06:59:26;;;;;;;71.97;17.40;;;-7.50;99.90;;;;;;5007417;28;20489;-67
2022/12/18 07:01:52;;;;;;;63.55;16.73;;;-7.40;99.90;;;;;;5000740;28;20033;-68
2022/12/18 07:04:17;;;;;;;62.35;16.52;;;-7.40;99.90;;;;;;5004874;28;20033;-68
2022/12/18 07:06:43;;;;;;;65.07;17.15;;;-7.40;99.90;;;;;;5005699;28;20045;-68
2022/12/18 07:09:09;;;;;;;78.40;18.33;;;-7.30;99.90;;;;;;5001037;28;20025;-68
2022/12/18 07:11:34;;;;;;;67.60;16.63;;;-7.30;99.90;;;;;;4998957;28;20034;-69
2022/12/18 07:14:00;;;;;;;72.88;16.88;;;-7.40;99.90;;;;;;4994206;28;20031;-69
2022/12/18 07:16:28;;;;;;;64.38;16.45;;;-7.40;99.90;;;;;;5002229;28;20502;-69
2022/12/18 07:18:55;;;;;;;67.32;16.33;;;-7.40;99.90;;;;;;5002612;28;20038;-68
2022/12/18 07:21:21;;;;;;;61.70;16.00;;;-7.30;99.90;;;;;;5008801;28;20105;-67
2022/12/18 07:23:47;;;;;;;63.72;16.58;;;-7.20;99.90;;;;;;4987904;28;20086;-68
2022/12/18 07:26:15;;;;;;;72.85;18.30;;;-7.10;99.90;;;;;;5007708;28;20401;-68
2022/12/18 07:28:41;;;;;;;67.65;17.13;;;-7.10;99.90;;;;;;5003463;28;20033;-69
2022/12/18 07:31:10;;;;;;;79.68;18.00;;;-7.10;99.90;;;;;;5015916;28;20033;-67
2022/12/18 07:33:36;;;;;;;68.28;18.40;;;-7.10;99.90;;;;;;5018653;28;20049;-69
2022/12/18 07:36:04;;;;;;;79.00;19.25;;;-7.10;99.90;;;;;;5002440;28;20038;-68
2022/12/18 07:38:30;;;;;;;90.68;20.33;;;-7.00;99.90;;;;;;5001057;28;20033;-68
2022/12/18 07:41:01;;;;;;;80.07;19.27;;;-7.00;99.90;;;;;;5007154;28;20420;-68
2022/12/18 07:43:27;;;;;;;85.22;21.17;;;-7.00;99.90;;;;;;5000795;28;20034;-68
2022/12/18 07:45:52;;;;;;;80.47;19.42;;;-7.00;99.90;;;;;;5003818;28;20034;-67
2022/12/18 07:48:18;;;;;;;78.55;19.35;;;-7.00;99.90;;;;;;5009107;28;20029;-67
2022/12/18 07:50:44;;;;;;;87.68;21.95;;;-7.00;99.90;;;;;;5001814;28;20034;-68
2022/12/18 07:53:09;;;;;;;74.18;19.85;;;-7.00;99.90;;;;;;5001883;28;20089;-68
2022/12/18 07:55:35;;;;;;;74.05;19.50;;;-7.00;99.90;;;;;;4998180;28;20037;-68
2022/12/18 07:58:02;;;;;;;72.25;19.15;;;-7.00;99.90;;;;;;5001924;28;20042;-67
2022/12/18 08:00:28;;;;;;;70.88;19.08;;;-6.90;99.90;;;;;;5021759;28;20030;-68
2022/12/18 08:02:53;;;;;;;73.80;17.58;;;-6.90;99.90;;;;;;4992146;28;20034;-68
2022/12/18 08:05:20;;;;;;;65.10;17.08;;;-6.90;99.90;;;;;;5005921;28;20042;-69
2022/12/18 08:07:46;;;;;;;74.97;18.58;;;-6.80;99.90;;;;;;4994771;28;20507;-68
2022/12/18 08:10:12;;;;;;;70.38;18.90;;;-6.70;99.90;;;;;;4996690;28;20092;-68
2022/12/18 08:12:38;;;;;;;73.15;19.58;;;-6.60;99.90;;;;;;5005846;28;20471;-69
2022/12/18 08:15:04;;;;;;;69.22;17.98;;;-6.60;99.90;;;;;;5015903;28;20061;-69
2022/12/18 08:17:29;;;;;;;69.68;18.42;;;-6.50;99.90;;;;;;5011671;28;20042;-66
2022/12/18 08:19:55;;;;;;;71.32;18.40;;;-6.50;99.90;;;;;;5010502;28;20034;-66
2022/12/18 08:22:21;;;;;;;73.28;20.00;;;-6.40;99.90;;;;;;5009034;28;20053;-65
2022/12/18 08:24:46;;;;;;;65.25;17.95;;;-6.40;99.90;;;;;;5026505;28;20160;-64
2022/12/18 08:27:12;;;;;;;80.13;19.42;;;-6.30;99.90;;;;;;5011348;28;20073;-65
2022/12/18 08:29:38;;;;;;;72.20;18.58;;;-6.30;99.90;;;;;;5011414;28;20022;-65
2022/12/18 08:32:03;;;;;;;87.68;24.88;;;-6.30;99.90;;;;;;5006027;28;20030;-66
2022/12/18 08:34:29;;;;;;;81.03;20.83;;;-6.30;99.90;;;;;;5008007;28;20640;-64
2022/12/18 08:36:55;;;;;;;79.22;20.55;;;-6.20;99.90;;;;;;5002336;28;20048;-66
2022/12/18 08:39:20;;;;;;;81.80;21.02;;;-6.10;99.90;;;;;;5004676;28;20072;-67
2022/12/18 08:44:37;;;;;;;72.10;19.05;;;-6.00;99.90;;;;;;5011047;28;20057;-66
2022/12/18 08:44:37;;;;;;;76.55;20.17;;;-6.00;99.90;;;;;;5009542;28;20058;-67
2022/12/18 08:47:04;;;;;;;75.32;19.10;;;-5.90;99.90;;;;;;5010726;28;20291;-66
2022/12/18 08:49:29;;;;;;;75.97;21.00;;;-5.80;99.90;;;;;;4999923;28;20044;-65
2022/12/18 08:51:57;;;;;;;78.22;20.50;;;-5.70;99.90;;;;;;5001429;28;20050;-67
2022/12/18 08:54:23;;;;;;;83.78;21.30;;;-5.60;99.90;;;;;;4997707;28;20038;-66
2022/12/18 08:56:49;;;;;;;70.45;20.25;;;-5.60;99.90;;;;;;5002187;28;20594;-66
2022/12/18 08:59:16;;;;;;;73.88;19.08;;;-5.60;99.90;;;;;;5012018;28;20116;-66
2022/12/18 09:01:42;;;;;;;79.60;21.13;;;-5.60;99.90;;;;;;5007886;28;20022;-67
2022/12/18 09:04:11;;;;;;;74.18;20.52;;;-5.50;99.90;;;;;;5009757;28;20088;-66
2022/12/18 09:06:37;;;;;;;83.85;20.92;;;-5.40;99.90;;;;;;5023916;28;20033;-66
2022/12/18 09:09:04;;;;;;;72.80;21.45;;;-5.20;99.90;;;;;;5025749;28;20585;-66
2022/12/18 09:11:33;;;;;;;74.18;21.70;;;-5.10;99.90;;;;;;5011591;28;20034;-67
2022/12/18 09:14:00;;;;;;;75.03;21.02;;;-4.90;99.90;;;;;;5009520;28;20433;-66
2022/12/18 09:16:28;;;;;;;72.32;20.30;;;-4.80;99.90;;;;;;4992110;28;20050;-67
2022/12/18 09:19:01;;;;;;;78.72;20.95;;;-4.90;99.90;;;;;;4991124;28;20085;-65
2022/12/18 09:21:34;;;;;;;73.60;20.65;;;-4.80;99.90;;;;;;5008002;28;20036;-65
2022/12/18 09:24:00;;;;;;;80.22;20.83;;;-4.80;99.90;;;;;;5007056;28;20422;-68
2022/12/18 09:26:26;;;;;;;77.85;21.67;;;-4.70;99.90;;;;;;4992082;28;20042;-67
2022/12/18 09:28:52;;;;;;;83.15;22.85;;;-4.70;99.90;;;;;;5008602;28;20145;-68
2022/12/18 09:31:20;;;;;;;77.47;21.42;;;-4.70;99.90;;;;;;5007102;28;20148;-68
2022/12/18 09:33:46;;;;;;;72.57;19.73;;;-4.60;99.90;;;;;;5007131;28;20041;-68
2022/12/18 09:36:14;;;;;;;75.18;21.55;;;-4.40;99.90;;;;;;5010683;28;20030;-69
2022/12/18 09:38:40;;;;;;;72.70;21.17;;;-4.30;99.90;;;;;;5009752;28;20040;-69
2022/12/18 09:41:44;;;;;;;75.47;21.73;;;-4.30;99.90;;;;;;5010695;28;20026;-68
2022/12/18 09:44:14;;;;;;;80.03;20.58;;;-4.10;99.90;;;;;;5010668;28;20025;-67
2022/12/18 09:46:47;;;;;;;74.13;20.52;;;-4.10;99.90;;;;;;5011323;28;20119;-68
2022/12/18 09:49:26;;;;;;;81.53;23.33;;;-4.00;99.90;;;;;;5011389;28;20033;-66
2022/12/18 09:52:01;;;;;;;78.15;22.23;;;-3.80;99.90;;;;;;5008634;28;20112;-68
2022/12/18 09:54:38;;;;;;;83.88;31.75;;;-3.60;99.90;;;;;;5024316;28;20466;-68
2022/12/18 09:57:04;;;;;;;73.25;21.58;;;-3.50;99.90;;;;;;5012939;28;20092;-70
2022/12/18 09:59:36;;;;;;;73.88;21.80;;;-3.50;99.90;;;;;;5010629;28;20034;-68
2022/12/18 10:02:30;;;;;;;71.70;21.23;;;-3.60;99.90;;;;;;5001546;28;20058;-70
2022/12/18 10:05:14;;;;;;;84.47;22.95;;;-3.40;99.90;;;;;;5006233;28;20040;-70
2022/12/18 10:07:51;;;;;;;66.75;19.95;;;-3.40;99.90;;;;;;5009031;28;20092;-70
2022/12/18 10:10:27;;;;;;;70.57;20.55;;;-3.40;99.90;;;;;;5006177;28;20074;-70
2022/12/18 10:13:00;;;;;;;64.03;20.00;;;-3.30;99.90;;;;;;5001043;28;20037;-70
2022/12/18 10:15:45;;;;;;;74.22;23.92;;;-3.40;99.90;;;;;;4991085;28;20137;-71
2022/12/18 10:18:28;;;;;;;82.20;24.83;;;-3.20;99.90;;;;;;4998052;28;20029;-70
2022/12/18 10:20:59;;;;;;;70.28;19.80;;;-3.10;99.90;;;;;;5010072;28;20038;-69
2022/12/18 10:23:43;;;;;;;66.22;19.58;;;-3.00;99.90;;;;;;5004987;28;20045;-71
2022/12/18 10:26:15;;;;;;;59.33;19.23;;;-2.90;99.90;;;;;;5008817;28;20030;-71
2022/12/18 10:28:41;;;;;;;84.45;28.38;;;-2.80;99.90;;;;;;5009740;28;20038;-70
2022/12/18 10:31:16;;;;;;;77.38;23.42;;;-2.90;99.90;;;;;;5007543;28;20021;-70
2022/12/18 10:33:43;;;;;;;100.22;34.95;;;-2.90;99.90;;;;;;5000654;28;20210;-70
2022/12/18 10:36:09;;;;;;;76.78;23.02;;;-2.80;99.90;;;;;;5002969;28;20209;-69
2022/12/18 10:38:35;;;;;;;78.93;23.23;;;-2.70;99.90;;;;;;5010372;28;20475;-70
2022/12/18 10:41:04;;;;;;;69.65;21.27;;;-2.70;99.90;;;;;;4995888;28;20084;-69
2022/12/18 10:43:31;;;;;;;79.45;22.25;;;-2.70;99.90;;;;;;4990242;28;20439;-70
2022/12/18 10:46:08;;;;;;;64.28;19.88;;;-2.80;99.90;;;;;;4995149;28;20125;-71
2022/12/18 10:48:47;;;;;;;68.32;21.42;;;-2.70;99.90;;;;;;5005651;28;20103;-70
2022/12/18 10:51:27;;;;;;;65.60;20.13;;;-2.60;99.90;;;;;;5009468;28;20106;-70
2022/12/18 10:54:00;;;;;;;86.32;31.00;;;-2.70;99.90;;;;;;5006849;28;20033;-69
2022/12/18 10:56:28;;;;;;;76.55;22.17;;;-2.70;99.90;;;;;;5007034;28;20077;-71
2022/12/18 10:59:05;;;;;;;62.72;18.25;;;-2.50;99.90;;;;;;5008298;28;20076;-70
2022/12/18 11:01:51;;;;;;;66.78;20.55;;;-2.70;99.90;;;;;;5007707;28;20042;-69
2022/12/18 11:04:23;;;;;;;66.47;18.90;;;-2.50;99.90;;;;;;4998052;28;20026;-69
2022/12/18 11:07:07;;;;;;;65.90;20.63;;;-2.40;99.90;;;;;;4997200;28;20070;-67
2022/12/18 11:09:35;;;;;;;56.60;17.60;;;-2.30;99.90;;;;;;5009781;28;20033;-71
2022/12/18 11:12:08;;;;;;;60.08;19.63;;;-2.20;99.90;;;;;;4998734;28;20418;-70
2022/12/18 11:14:45;;;;;;;64.00;19.17;;;-2.10;99.90;;;;;;4989756;28;20068;-71
2022/12/18 11:17:24;;;;;;;74.38;27.20;;;-1.80;99.90;;;;;;4989019;28;20054;-71
2022/12/18 11:20:14;;;;;;;75.47;28.05;;;-1.80;99.90;;;;;;4993512;28;20042;-67
2022/12/18 11:22:40;;;;;;;64.03;18.73;;;-1.90;99.90;;;;;;5009237;28;20133;-71
2022/12/18 11:25:18;;;;;;;55.67;18.27;;;-1.80;99.90;;;;;;4998229;28;20121;-70
2022/12/18 11:27:57;;;;;;;64.68;20.63;;;-1.90;99.90;;;;;;4989937;28;20030;-71
2022/12/18 11:30:34;;;;;;;61.38;18.20;;;-1.70;99.90;;;;;;4989107;28;20038;-71
2022/12/18 11:33:17;;;;;;;54.45;17.48;;;-1.40;99.90;;;;;;4989520;28;20101;-71
2022/12/18 11:36:02;;;;;;;58.00;17.73;;;-1.50;99.90;;;;;;5000867;28;20076;-70
2022/12/18 11:38:34;;;;;;;53.55;15.80;;;-1.50;99.90;;;;;;4992466;28;20471;-71
2022/12/18 11:44:41;;;;;;;71.20;23.58;;;-1.60;99.90;;;;;;5000109;28;20033;-71
2022/12/18 11:47:32;;;;;;;67.93;21.65;;;-1.60;99.90;;;;;;5008672;28;20033;-70
2022/12/18 11:50:01;;;;;;;68.90;20.27;;;-1.50;99.90;;;;;;5006982;28;20450;-72
2022/12/18 11:52:37;;;;;;;60.03;16.73;;;-1.80;99.90;;;;;;5002492;28;20026;-71
2022/12/18 11:55:11;;;;;;;55.15;16.75;;;-1.80;99.90;;;;;;5004688;28;20068;-69
2022/12/18 11:58:08;;;;;;;49.80;16.00;;;-2.00;99.90;;;;;;5003256;28;20027;-71
2022/12/18 12:00:45;;;;;;;59.35;18.30;;;-1.90;99.90;;;;;;4998779;28;20088;-68
2022/12/18 12:03:40;;;;;;;58.30;18.35;;;-1.80;99.90;;;;;;5007166;28;20475;-70
2022/12/18 12:06:15;;;;;;;53.03;16.58;;;-1.60;99.90;;;;;;5003696;28;20037;-71
2022/12/18 12:08:40;;;;;;;59.97;18.50;;;-1.30;99.90;;;;;;5009109;28;20124;-70
2022/12/18 12:11:24;;;;;;;59.95;16.95;;;-1.30;99.90;;;;;;5007427;28;20104;-70
2022/12/18 12:13:58;;;;;;;57.08;17.52;;;-1.40;99.90;;;;;;5002454;28;20538;-71
2022/12/18 12:16:31;;;;;;;60.00;17.92;;;-1.70;99.90;;;;;;4991074;28;20462;-70
2022/12/18 12:19:13;;;;;;;70.00;19.52;;;-1.80;99.90;;;;;;4987756;28;20045;-68
2022/12/18 12:21:52;;;;;;;59.90;17.05;;;-1.80;99.90;;;;;;4988710;28;20048;-71
2022/12/18 12:24:36;;;;;;;78.18;23.25;;;-1.90;99.90;;;;;;5008355;28;20061;-71
2022/12/18 12:27:26;;;;;;;66.28;18.98;;;-1.60;99.90;;;;;;4996347;28;20030;-70
2022/12/18 12:30:02;;;;;;;;;;;-1.40;99.90;;;;;;4989403;28;20038;-69
2022/12/18 12:32:33;;;;;;;59.58;17.05;;;-1.10;99.90;;;;;;4989593;28;20020;-70
2022/12/18 12:35:27;;;;;;;58.78;17.48;;;-0.90;99.90;;;;;;4988276;28;20494;-70
2022/12/18 12:37:55;;;;;;;55.55;16.38;;;-1.10;99.90;;;;;;4997823;28;20046;-69
2022/12/18 12:40:26;;;;;;;67.78;18.63;;;-1.30;99.90;;;;;;5007234;28;20038;-68
2022/12/18 12:43:15;;;;;;;57.47;18.42;;;-1.10;99.90;;;;;;5011397;28;20037;-70
2022/12/18 12:46:08;;;;;;;60.78;18.42;;;-1.10;99.90;;;;;;5010862;28;20584;-69
2022/12/18 12:48:47;;;;;;;63.47;17.73;;;-1.10;99.90;;;;;;4992705;28;20057;-69